Time;durP1;ratioP1;P1;durP2;ratioP2;P2;SDS_P1;SDS_P2;PMS_P1;PMS_P2;Temp;Humidity;BMP_temperature;BMP_pressure;BME280_temperature;BME280_humidity;BME280_pressure;Samples;Min_cycle;Max_cycle;Signal;HPM_P1;HPM_P2
2023/03/29 00:01:05;;;;;;;;;;;;;;;-0.19;62.16;101135.15;107673;1253;109531;-63
2023/03/29 00:03:33;;;;;;;;;;;;;;;-0.23;62.10;101134.97;107489;1253;107331;-64
2023/03/29 00:06:04;;;;;;;;;;;;;;;-0.25;62.13;101136.77;107570;1254;97951;-63
2023/03/29 00:08:36;;;;;;;;;;;;;;;-0.26;62.20;101138.95;107597;1252;97710;-63
2023/03/29 00:11:06;;;;;;;;;;;;;;;-0.29;62.36;101141.53;107712;1254;111514;-64
2023/03/29 00:13:35;;;;;;;;;;;;;;;-0.32;62.39;101143.23;107589;1253;110077;-63
2023/03/29 00:16:04;;;;;;;;;;;;;;;-0.34;62.58;101143.48;107533;1253;108127;-64
2023/03/29 00:18:32;;;;;;;;;;;;;;;-0.35;62.30;101142.48;107649;1255;97821;-63
2023/03/29 00:21:00;;;;;;;;;;;;;;;-0.35;62.20;101140.35;107646;1254;97817;-64
2023/03/29 00:23:30;;;;;;;;;;;;;;;-0.33;61.88;101142.02;107601;1254;112275;-63
2023/03/29 00:25:58;;;;;;;;;;;;;;;-0.30;61.78;101145.45;107583;1253;109296;-64
2023/03/29 00:28:26;;;;;;;;;;;;;;;-0.30;61.60;101141.40;107601;1252;107961;-63
2023/03/29 00:31:02;;;;;;;;;;;;;;;-0.30;61.21;101145.44;107601;1254;97848;-64
2023/03/29 00:33:32;;;;;;;;;;;;;;;-0.28;60.98;101147.48;107745;1252;97694;-63
2023/03/29 00:36:03;;;;;;;;;;;;;;;-0.27;60.86;101142.86;107645;1253;112065;-64
2023/03/29 00:38:32;;;;;;;;;;;;;;;-0.28;60.61;101149.80;107637;1252;108978;-64
2023/03/29 00:41:00;;;;;;;;;;;;;;;-0.30;60.65;101149.85;107658;1252;108224;-64
2023/03/29 00:43:29;;;;;;;;;;;;;;;-0.32;60.47;101153.09;107582;1253;97855;-62
2023/03/29 00:45:57;;;;;;;;;;;;;;;-0.35;60.04;101157.41;107690;1254;97831;-63
2023/03/29 00:48:30;;;;;;;;;;;;;;;-0.35;60.09;101159.52;107605;1252;112081;-65
2023/03/29 00:51:02;;;;;;;;;;;;;;;-0.37;60.18;101166.67;107630;1253;109611;-64
2023/03/29 00:53:34;;;;;;;;;;;;;;;-0.41;59.72;101162.75;107641;1253;107265;-62
2023/03/29 00:56:10;;;;;;;;;;;;;;;-0.43;59.64;101165.65;107614;1253;97900;-64
2023/03/29 00:58:46;;;;;;;;;;;;;;;-0.46;59.68;101167.02;107673;1254;97701;-64
2023/03/29 01:01:18;;;;;;;;;;;;;;;-0.48;59.55;101165.46;107589;1254;111833;-64
2023/03/29 01:04:07;;;;;;;;;;;;;;;-0.50;59.36;101169.27;107620;1254;108903;-63
2023/03/29 01:06:38;;;;;;;;;;;;;;;-0.53;59.46;101169.73;107621;1254;108265;-65
2023/03/29 01:09:09;;;;;;;;;;;;;;;-0.58;59.27;101169.52;107633;1254;97912;-64
2023/03/29 01:11:40;;;;;;;;;;;;;;;-0.60;59.10;101170.14;107725;1256;97837;-63
2023/03/29 01:14:14;;;;;;;;;;;;;;;-0.62;59.04;101170.74;107624;1253;111649;-62
2023/03/29 01:16:44;;;;;;;;;;;;;;;-0.65;58.87;101169.59;107595;1253;107566;-63
2023/03/29 01:19:17;;;;;;;;;;;;;;;-0.66;58.70;101166.83;107702;1253;107145;-64
2023/03/29 01:21:52;;;;;;;;;;;;;;;-0.64;58.54;101171.16;107539;1253;97924;-63
2023/03/29 01:24:32;;;;;;;;;;;;;;;-0.65;58.33;101172.23;107613;1254;97841;-64
2023/03/29 01:27:08;;;;;;;;;;;;;;;-0.66;58.21;101173.48;107688;1254;110846;-63
2023/03/29 01:29:36;;;;;;;;;;;;;;;-0.65;57.76;101176.31;107641;1253;109387;-64
2023/03/29 01:32:14;;;;;;;;;;;;;;;-0.66;57.74;101174.40;107570;1252;108197;-63
2023/03/29 01:34:50;;;;;;;;;;;;;;;-0.66;57.43;101175.09;107612;1254;97828;-63
2023/03/29 01:37:23;;;;;;;;;;;;;;;-0.66;57.61;101177.19;107623;1254;97942;-64
2023/03/29 01:39:52;;;;;;;;;;;;;;;-0.67;57.41;101176.39;107656;1254;111539;-63
2023/03/29 01:42:39;;;;;;;;;;;;;;;-0.68;57.38;101179.41;107677;1253;107957;-67
2023/03/29 01:45:13;;;;;;;;;;;;;;;-0.68;57.18;101183.81;107679;1254;107101;-63
2023/03/29 01:47:46;;;;;;;;;;;;;;;-0.69;57.11;101184.38;107644;1255;97938;-63
2023/03/29 01:50:17;;;;;;;;;;;;;;;-0.70;56.77;101180.19;107642;1253;97877;-64
2023/03/29 01:52:50;;;;;;;;;;;;;;;-0.70;56.58;101180.70;107626;1254;111151;-63
2023/03/29 01:55:24;;;;;;;;;;;;;;;-0.70;56.25;101182.45;107712;1253;108190;-64
2023/03/29 01:57:54;;;;;;;;;;;;;;;-0.69;56.39;101181.39;107564;1253;108166;-63
2023/03/29 02:00:26;;;;;;;;;;;;;;;-0.68;56.23;101180.45;107564;1253;97925;-62
2023/03/29 02:02:59;;;;;;;;;;;;;;;-0.64;56.19;101181.22;107655;1254;97805;-64
2023/03/29 02:05:30;;;;;;;;;;;;;;;-0.61;55.80;101178.48;107496;1253;111869;-65
2023/03/29 02:07:59;;;;;;;;;;;;;;;-0.58;56.06;101183.09;107618;1253;110468;-64
2023/03/29 02:10:29;;;;;;;;;;;;;;;-0.54;55.72;101186.48;107657;1254;108831;-63
2023/03/29 02:12:57;;;;;;;;;;;;;;;-0.52;55.28;101188.89;107602;1252;97810;-63
2023/03/29 02:15:26;;;;;;;;;;;;;;;-0.51;55.50;101185.16;107442;1252;97890;-63
2023/03/29 02:17:56;;;;;;;;;;;;;;;-0.52;55.46;101192.23;107680;1254;111643;-63
2023/03/29 02:20:24;;;;;;;;;;;;;;;-0.53;55.19;101191.92;107640;1254;109981;-62
2023/03/29 02:23:22;;;;;;;;;;;;;;;-0.55;55.36;101193.06;107696;1254;107653;-63
2023/03/29 02:25:52;;;;;;;;;;;;;;;-0.59;55.21;101192.14;107330;1253;97912;-63
2023/03/29 02:28:23;;;;;;;;;;;;;;;-0.61;55.02;101195.02;107566;1254;97892;-63
2023/03/29 02:31:01;;;;;;;;;;;;;;;-0.63;55.08;101197.20;107634;1254;110874;-63
2023/03/29 02:33:46;;;;;;;;;;;;;;;-0.64;55.27;101203.03;107528;1254;108494;-64
2023/03/29 02:36:18;;;;;;;;;;;;;;;-0.62;55.17;101206.84;107633;1254;108160;-67
2023/03/29 02:38:47;;;;;;;;;;;;;;;-0.57;55.00;101208.81;107671;1252;97941;-64
2023/03/29 02:41:16;;;;;;;;;;;;;;;-0.53;55.07;101214.13;107631;1254;97755;-62
2023/03/29 02:43:47;;;;;;;;;;;;;;;-0.51;54.96;101213.16;107628;1253;112412;-62
2023/03/29 02:46:17;;;;;;;;;;;;;;;-0.51;54.87;101209.98;107512;1258;109036;-63
2023/03/29 02:48:47;;;;;;;;;;;;;;;-0.48;54.67;101214.82;107445;1254;108080;-64
2023/03/29 02:51:19;;;;;;;;;;;;;;;-0.48;54.68;101214.99;107631;1254;97831;-63
2023/03/29 02:53:51;;;;;;;;;;;;;;;-0.47;54.62;101217.42;107673;1253;97841;-64
2023/03/29 02:56:20;;;;;;;;;;;;;;;-0.46;54.51;101216.52;107628;1254;110163;-65
2023/03/29 02:58:48;;;;;;;;;;;;;;;-0.45;54.59;101219.83;107680;1254;109697;-63
2023/03/29 03:01:17;;;;;;;;;;;;;;;-0.43;54.69;101223.81;107634;1254;107685;-62
2023/03/29 03:03:46;;;;;;;;;;;;;;;-0.41;54.52;101225.52;107623;1252;97829;-65
2023/03/29 03:06:15;;;;;;;;;;;;;;;-0.37;54.98;101228.34;107573;1254;97861;-63
2023/03/29 03:08:45;;;;;;;;;;;;;;;-0.31;54.49;101231.86;107654;1254;112492;-64
2023/03/29 03:11:15;;;;;;;;;;;;;;;-0.32;54.30;101230.29;107692;1254;108830;-63
2023/03/29 03:13:44;;;;;;;;;;;;;;;-0.30;54.39;101231.10;107623;1254;107764;-64
2023/03/29 03:16:13;;;;;;;;;;;;;;;-0.29;54.49;101238.33;107626;1252;98313;-63
2023/03/29 03:18:44;;;;;;;;;;;;;;;-0.29;54.64;101239.35;107613;1253;97896;-63
2023/03/29 03:21:13;;;;;;;;;;;;;;;-0.25;54.20;101248.19;107671;1254;111412;-65
2023/03/29 03:23:41;;;;;;;;;;;;;;;-0.25;53.92;101245.56;107607;1254;109496;-64
2023/03/29 03:26:10;;;;;;;;;;;;;;;-0.26;54.05;101246.13;107665;1255;107926;-62
2023/03/29 03:28:40;;;;;;;;;;;;;;;-0.30;53.71;101242.93;107649;1254;97809;-63
2023/03/29 03:31:13;;;;;;;;;;;;;;;-0.36;53.62;101246.27;107504;1253;97909;-65
2023/03/29 03:34:00;;;;;;;;;;;;;;;-0.40;53.57;101246.40;107639;1254;111829;-62
2023/03/29 03:36:46;;;;;;;;;;;;;;;-0.40;53.62;101252.98;107623;1253;110439;-63
2023/03/29 03:39:14;;;;;;;;;;;;;;;-0.42;53.77;101254.80;107679;1254;108436;-62
2023/03/29 03:41:44;;;;;;;;;;;;;;;-0.45;53.56;101251.90;107594;1256;97807;-64
2023/03/29 03:44:12;;;;;;;;;;;;;;;-0.50;53.58;101249.25;107678;1253;97714;-62
2023/03/29 03:46:42;;;;;;;;;;;;;;;-0.54;53.73;101255.92;107620;1254;112119;-64
2023/03/29 03:49:11;;;;;;;;;;;;;;;-0.61;53.72;101256.15;107653;1254;109652;-63
2023/03/29 03:51:43;;;;;;;;;;;;;;;-0.68;53.55;101257.42;107639;1255;107468;-63
2023/03/29 03:54:11;;;;;;;;;;;;;;;-0.73;53.53;101260.77;107626;1252;97802;-63
2023/03/29 03:57:01;;;;;;;;;;;;;;;-0.77;53.74;101265.85;107639;1253;97729;-64
2023/03/29 03:59:39;;;;;;;;;;;;;;;-0.82;53.70;101265.81;107517;1254;111299;-64
2023/03/29 04:02:12;;;;;;;;;;;;;;;-0.87;53.93;101270.04;107579;1255;109673;-64
2023/03/29 04:04:41;;;;;;;;;;;;;;;-0.94;53.66;101267.61;107430;1254;106910;-63
2023/03/29 04:07:13;;;;;;;;;;;;;;;-0.97;53.87;101271.78;107551;1253;97822;-63
2023/03/29 04:10:03;;;;;;;;;;;;;;;-0.99;53.67;101271.66;107514;1253;97902;-63
2023/03/29 04:12:49;;;;;;;;;;;;;;;-1.00;54.14;101274.53;107629;1254;110669;-62
2023/03/29 04:15:19;;;;;;;;;;;;;;;-1.01;54.03;101276.11;107655;1254;108807;-64
2023/03/29 04:18:00;;;;;;;;;;;;;;;-1.05;54.13;101280.12;107547;1254;108134;-64
2023/03/29 04:20:34;;;;;;;;;;;;;;;-1.11;54.17;101286.30;107648;1254;98247;-62
2023/03/29 04:23:03;;;;;;;;;;;;;;;-1.15;54.48;101296.09;107705;1254;97702;-63
2023/03/29 04:25:32;;;;;;;;;;;;;;;-1.17;54.45;101296.17;107669;1254;111814;-61
2023/03/29 04:28:19;;;;;;;;;;;;;;;-1.16;54.38;101296.31;107656;1255;110012;-63
2023/03/29 04:30:52;;;;;;;;;;;;;;;-1.15;54.67;101298.39;107664;1254;108228;-63
2023/03/29 04:33:35;;;;;;;;;;;;;;;-1.14;54.68;101304.36;107587;1254;97918;-63
2023/03/29 04:36:05;;;;;;;;;;;;;;;-1.12;54.36;101303.77;107654;1254;97816;-65
2023/03/29 04:38:36;;;;;;;;;;;;;;;-1.07;54.60;101302.19;107532;1254;111821;-62
2023/03/29 04:41:08;;;;;;;;;;;;;;;-1.05;54.31;101306.53;107620;1253;109065;-62
2023/03/29 04:43:54;;;;;;;;;;;;;;;-1.01;54.49;101310.46;107554;1254;108431;-63
2023/03/29 04:46:31;;;;;;;;;;;;;;;-0.98;54.12;101314.77;107590;1253;97890;-63
2023/03/29 04:49:11;;;;;;;;;;;;;;;-0.97;54.11;101321.95;107596;1254;97804;-61
2023/03/29 04:51:42;;;;;;;;;;;;;;;-0.96;53.95;101326.86;107599;1254;111719;-63
2023/03/29 04:54:11;;;;;;;;;;;;;;;-0.96;54.15;101329.49;107674;1254;108881;-62
2023/03/29 04:56:55;;;;;;;;;;;;;;;-0.92;53.92;101330.23;107571;1253;108199;-62
2023/03/29 04:59:34;;;;;;;;;;;;;;;-0.90;53.97;101334.59;107602;1256;97911;-63
2023/03/29 05:02:07;;;;;;;;;;;;;;;-0.89;54.18;101336.85;107538;1254;97701;-63
2023/03/29 05:04:37;;;;;;;;;;;;;;;-0.87;53.99;101341.18;107633;1257;111173;-62
2023/03/29 05:07:11;;;;;;;;;;;;;;;-0.85;53.86;101338.85;107593;1254;108082;-63
2023/03/29 05:09:41;;;;;;;;;;;;;;;-0.85;54.05;101344.12;107479;1254;107738;-62
2023/03/29 05:12:10;;;;;;;;;;;;;;;-0.83;54.12;101354.63;107476;1254;99160;-62
2023/03/29 05:14:52;;;;;;;;;;;;;;;-0.82;53.94;101352.48;107700;1253;97835;-64
2023/03/29 05:17:22;;;;;;;;;;;;;;;-0.80;54.19;101352.22;107638;1252;111808;-61
2023/03/29 05:19:51;;;;;;;;;;;;;;;-0.77;54.30;101355.32;107671;1254;110067;-64
2023/03/29 05:22:20;;;;;;;;;;;;;;;-0.74;54.37;101353.80;107629;1254;108931;-64
2023/03/29 05:24:49;;;;;;;;;;;;;;;-0.69;54.45;101353.47;107542;1254;97697;-63
2023/03/29 05:27:21;;;;;;;;;;;;;;;-0.64;54.16;101359.14;107586;1254;97827;-62
2023/03/29 05:30:00;;;;;;;;;;;;;;;-0.59;54.11;101353.67;107646;1252;111575;-64
2023/03/29 05:32:37;;;;;;;;;;;;;;;-0.53;54.16;101363.70;107622;1254;109510;-63
2023/03/29 05:35:07;;;;;;;;;;;;;;;-0.51;53.74;101361.52;107618;1253;107760;-62
2023/03/29 05:37:35;;;;;;;;;;;;;;;-0.46;54.04;101363.84;107623;1253;99267;-62
2023/03/29 05:40:07;;;;;;;;;;;;;;;-0.44;53.47;101370.80;107600;1254;97910;-63
2023/03/29 05:42:46;;;;;;;;;;;;;;;-0.43;53.56;101369.91;107613;1253;112124;-62
2023/03/29 05:45:15;;;;;;;;;;;;;;;-0.41;53.36;101374.27;107601;1254;109526;-63
2023/03/29 05:47:45;;;;;;;;;;;;;;;-0.40;53.36;101371.75;107507;1254;108455;-63
2023/03/29 05:50:14;;;;;;;;;;;;;;;-0.36;53.39;101368.61;107505;1254;98579;-64
2023/03/29 05:52:43;;;;;;;;;;;;;;;-0.31;53.17;101372.84;107499;1254;97727;-63
2023/03/29 05:55:12;;;;;;;;;;;;;;;-0.27;52.94;101376.08;107629;1254;111279;-64
2023/03/29 05:57:43;;;;;;;;;;;;;;;-0.25;52.75;101368.59;107650;1254;109428;-64
2023/03/29 06:00:20;;;;;;;;;;;;;;;-0.22;52.30;101378.04;107598;1254;107700;-64
2023/03/29 06:02:54;;;;;;;;;;;;;;;-0.15;52.23;101374.27;107591;1258;97944;-63
2023/03/29 06:05:34;;;;;;;;;;;;;;;-0.04;52.11;101373.55;107631;1254;97874;-65
2023/03/29 06:08:03;;;;;;;;;;;;;;;0.04;51.80;101380.30;107635;1254;112569;-66
2023/03/29 06:10:47;;;;;;;;;;;;;;;0.06;51.21;101382.89;107667;1254;110061;-65
2023/03/29 06:13:37;;;;;;;;;;;;;;;0.09;50.95;101391.94;107645;1254;108554;-64
2023/03/29 06:16:07;;;;;;;;;;;;;;;0.11;50.32;101396.99;107636;1253;97880;-63
2023/03/29 06:18:37;;;;;;;;;;;;;;;0.06;50.38;101388.34;107666;1253;97877;-64
2023/03/29 06:21:07;;;;;;;;;;;;;;;0.16;50.55;101399.84;107600;1253;110904;-64
2023/03/29 06:23:36;;;;;;;;;;;;;;;0.24;50.43;101402.39;107701;1255;109454;-64
2023/03/29 06:26:07;;;;;;;;;;;;;;;0.32;50.04;101395.38;107627;1254;107830;-64
2023/03/29 06:28:39;;;;;;;;;;;;;;;0.44;49.93;101397.59;107681;1254;98052;-65
2023/03/29 06:31:08;;;;;;;;;;;;;;;0.49;49.79;101403.96;107554;1253;97959;-66
2023/03/29 06:33:42;;;;;;;;;;;;;;;0.59;50.22;101404.30;107632;1256;111322;-67
2023/03/29 06:36:22;;;;;;;;;;;;;;;0.72;49.79;101398.52;107702;1253;109331;-65
2023/03/29 06:38:52;;;;;;;;;;;;;;;0.81;49.59;101401.56;107596;1254;107682;-65
2023/03/29 06:41:51;;;;;;;;;;;;;;;0.80;48.83;101399.84;107568;1259;98023;-64
2023/03/29 06:44:35;;;;;;;;;;;;;;;0.75;48.86;101400.36;107615;1254;97972;-65
2023/03/29 06:47:10;;;;;;;;;;;;;;;0.72;48.83;101404.00;107597;1254;111478;-63
2023/03/29 06:49:38;;;;;;;;;;;;;;;0.80;48.54;101401.41;107643;1254;109639;-65
2023/03/29 06:52:24;;;;;;;;;;;;;;;0.91;47.16;101408.94;107621;1254;107888;-65
2023/03/29 06:54:52;;;;;;;;;;;;;;;0.99;46.70;101395.23;107625;1254;97904;-65
2023/03/29 06:57:24;;;;;;;;;;;;;;;1.06;46.37;101393.19;107578;1254;97860;-65
2023/03/29 06:59:53;;;;;;;;;;;;;;;1.10;46.21;101405.58;107705;1254;110779;-65
2023/03/29 07:02:26;;;;;;;;;;;;;;;1.17;45.93;101409.55;107686;1254;109403;-65
2023/03/29 07:04:57;;;;;;;;;;;;;;;1.25;46.23;101414.52;107596;1253;107587;-63
2023/03/29 07:07:52;;;;;;;;;;;;;;;1.38;46.11;101408.38;107658;1254;97970;-64
2023/03/29 07:10:43;;;;;;;;;;;;;;;1.46;44.69;101413.19;107569;1254;98311;-67
2023/03/29 07:13:45;;;;;;;;;;;;;;;1.54;44.80;101432.85;107562;1254;113098;-64
2023/03/29 07:16:18;;;;;;;;;;;;;;;1.63;44.98;101429.13;107533;1254;110139;-63
2023/03/29 07:19:13;;;;;;;;;;;;;;;1.77;44.60;101433.15;107611;1254;108171;-64
2023/03/29 07:22:00;;;;;;;;;;;;;;;1.70;43.71;101435.74;107699;1255;97905;-64
2023/03/29 07:24:44;;;;;;;;;;;;;;;1.74;43.67;101431.52;107622;1254;97802;-63
2023/03/29 07:27:13;;;;;;;;;;;;;;;1.83;43.08;101425.11;107592;1254;111764;-64
2023/03/29 07:29:45;;;;;;;;;;;;;;;1.94;43.49;101431.92;107625;1254;109013;-66
2023/03/29 07:32:13;;;;;;;;;;;;;;;2.06;43.37;101435.69;107488;1255;108598;-62
2023/03/29 07:34:42;;;;;;;;;;;;;;;2.09;43.25;101435.16;107587;1252;98466;-64
2023/03/29 07:37:16;;;;;;;;;;;;;;;2.09;43.22;101441.39;107581;1254;97841;-63
2023/03/29 07:39:45;;;;;;;;;;;;;;;2.10;43.42;101437.45;107568;1256;112312;-63
2023/03/29 07:42:36;;;;;;;;;;;;;;;2.26;43.38;101443.84;107615;1254;109538;-63
2023/03/29 07:45:07;;;;;;;;;;;;;;;2.40;43.06;101447.16;107728;1254;107670;-64
2023/03/29 07:47:42;;;;;;;;;;;;;;;2.42;41.98;101444.04;107671;1254;97822;-63
2023/03/29 07:50:11;;;;;;;;;;;;;;;2.53;41.95;101449.95;107617;1254;97810;-63
2023/03/29 07:52:39;;;;;;;;;;;;;;;2.75;41.14;101448.09;107631;1254;112260;-63
2023/03/29 07:55:11;;;;;;;;;;;;;;;2.91;40.53;101436.03;107635;1255;109456;-65
2023/03/29 07:57:55;;;;;;;;;;;;;;;2.95;39.83;101438.52;107612;1253;107757;-63
2023/03/29 08:00:24;;;;;;;;;;;;;;;2.89;39.72;101451.70;107668;1254;97810;-64
2023/03/29 08:03:18;;;;;;;;;;;;;;;2.83;40.43;101459.77;107458;1252;98068;-64
2023/03/29 08:05:47;;;;;;;;;;;;;;;2.58;40.25;101471.16;107537;1254;111387;-62
2023/03/29 08:08:16;;;;;;;;;;;;;;;2.49;41.02;101464.84;107632;1253;109604;-64
2023/03/29 08:10:56;;;;;;;;;;;;;;;2.68;40.85;101462.41;107645;1255;107682;-63
2023/03/29 08:13:33;;;;;;;;;;;;;;;2.74;40.57;101453.63;107593;1254;97815;-63
2023/03/29 08:16:22;;;;;;;;;;;;;;;2.62;40.08;101472.20;107245;1257;97923;-62
2023/03/29 08:18:58;;;;;;;;;;;;;;;2.47;39.64;101467.91;107621;1256;112046;-64
2023/03/29 08:21:38;;;;;;;;;;;;;;;2.51;39.96;101468.11;107643;1254;109693;-66
2023/03/29 08:24:08;;;;;;;;;;;;;;;2.52;39.74;101473.90;107636;1253;107292;-62
2023/03/29 08:26:47;;;;;;;;;;;;;;;2.60;38.56;101465.39;107632;1254;97819;-62
2023/03/29 08:29:17;;;;;;;;;;;;;;;2.77;39.42;101466.77;107680;1256;97781;-63
2023/03/29 08:31:45;;;;;;;;;;;;;;;2.80;39.53;101471.42;107564;1257;111747;-64
2023/03/29 08:34:13;;;;;;;;;;;;;;;2.68;39.93;101473.75;107642;1256;110957;-66
2023/03/29 08:37:13;;;;;;;;;;;;;;;2.47;40.45;101478.02;107564;1254;108001;-63
2023/03/29 08:39:45;;;;;;;;;;;;;;;2.37;40.55;101475.80;107677;1256;97822;-63
2023/03/29 08:42:48;;;;;;;;;;;;;;;2.55;39.70;101476.08;107687;1256;97815;-63
2023/03/29 08:45:23;;;;;;;;;;;;;;;2.79;39.49;101470.41;107602;1254;110350;-64
2023/03/29 08:48:11;;;;;;;;;;;;;;;3.11;39.03;101465.42;107555;1254;109333;-63
2023/03/29 08:50:46;;;;;;;;;;;;;;;3.41;39.49;101453.75;107550;1254;108983;-63
2023/03/29 08:53:23;;;;;;;;;;;;;;;3.85;39.59;101448.23;107689;1254;97829;-63
2023/03/29 08:56:05;;;;;;;;;;;;;;;4.17;37.78;101444.22;107480;1254;97817;-63
2023/03/29 08:58:53;;;;;;;;;;;;;;;4.09;37.13;101460.71;107620;1254;111681;-65
2023/03/29 09:01:23;;;;;;;;;;;;;;;3.86;37.23;101466.84;107766;1254;110432;-64
2023/03/29 09:03:54;;;;;;;;;;;;;;;3.57;37.46;101467.35;107548;1256;108142;-64
2023/03/29 09:06:31;;;;;;;;;;;;;;;3.28;35.85;101483.10;107573;1255;97831;-65
2023/03/29 09:09:13;;;;;;;;;;;;;;;3.09;36.85;101483.41;107592;1253;97849;-63
2023/03/29 09:11:56;;;;;;;;;;;;;;;2.95;38.16;101500.00;107706;1256;111825;-65
2023/03/29 09:14:34;;;;;;;;;;;;;;;2.67;39.05;101499.48;107608;1255;109289;-63
2023/03/29 09:17:04;;;;;;;;;;;;;;;2.64;39.01;101507.39;107573;1255;108242;-63
2023/03/29 09:19:38;;;;;;;;;;;;;;;2.74;38.82;101505.51;107611;1254;97896;-65
2023/03/29 09:22:27;;;;;;;;;;;;;;;2.95;38.66;101502.48;107728;1254;97692;-64
2023/03/29 09:25:15;;;;;;;;;;;;;;;3.18;37.85;101501.80;107583;1254;109804;-65
2023/03/29 09:27:48;;;;;;;;;;;;;;;3.46;37.66;101499.08;107634;1254;109225;-63
2023/03/29 09:30:25;;;;;;;;;;;;;;;3.40;37.36;101510.88;107628;1254;107877;-64
2023/03/29 09:33:12;;;;;;;;;;;;;;;3.27;38.33;101502.47;107678;1254;97701;-62
2023/03/29 09:36:09;;;;;;;;;;;;;;;3.27;37.84;101504.56;107671;1255;97911;-63
2023/03/29 09:38:41;;;;;;;;;;;;;;;3.32;37.91;101505.23;107698;1254;110780;-63
2023/03/29 09:41:10;;;;;;;;;;;;;;;3.33;36.34;101509.45;107543;1257;108612;-65
2023/03/29 09:43:41;;;;;;;;;;;;;;;3.33;35.77;101510.52;107639;1255;107582;-66
2023/03/29 09:46:35;;;;;;;;;;;;;;;4.02;36.27;101501.54;107572;1257;97924;-64
2023/03/29 09:49:05;;;;;;;;;;;;;;;5.20;35.28;101497.11;107581;1257;97902;-64
2023/03/29 09:51:34;;;;;;;;;;;;;;;5.29;35.35;101487.02;107700;1254;112221;-64
2023/03/29 09:54:02;;;;;;;;;;;;;;;4.98;34.50;101490.79;107343;1253;109919;-65
2023/03/29 09:56:51;;;;;;;;;;;;;;;4.63;35.52;101499.40;107587;1254;108381;-63
2023/03/29 09:59:21;;;;;;;;;;;;;;;4.23;35.91;101509.02;107590;1256;97873;-63
2023/03/29 10:01:50;;;;;;;;;;;;;;;3.77;37.21;101521.59;107437;1254;97905;-64
2023/03/29 10:04:21;;;;;;;;;;;;;;;3.51;38.09;101521.58;107021;1254;816618;-63
2023/03/29 10:06:54;;;;;;;;;;;;;;;3.36;38.43;101522.80;107642;1254;109724;-63
2023/03/29 10:09:23;;;;;;;;;;;;;;;3.32;38.81;101521.19;107631;1254;107587;-65
2023/03/29 10:12:01;;;;;;;;;;;;;;;3.29;38.09;101520.97;107689;1254;97790;-63
2023/03/29 10:14:37;;;;;;;;;;;;;;;3.72;38.08;101517.16;107655;1254;97711;-65
2023/03/29 10:17:20;;;;;;;;;;;;;;;4.32;36.64;101502.92;107694;1254;111298;-62
2023/03/29 10:19:55;;;;;;;;;;;;;;;4.34;35.90;101504.40;107632;1254;108706;-64
2023/03/29 10:22:26;;;;;;;;;;;;;;;4.25;36.20;101508.61;107618;1254;107144;-62
2023/03/29 10:24:56;;;;;;;;;;;;;;;4.12;35.51;101508.85;107549;1253;97818;-63
2023/03/29 10:27:26;;;;;;;;;;;;;;;3.95;35.77;101516.27;107640;1257;97892;-62
2023/03/29 10:29:59;;;;;;;;;;;;;;;3.84;36.04;101514.54;107649;1254;111449;-62
2023/03/29 10:32:29;;;;;;;;;;;;;;;3.67;35.85;101521.51;107619;1254;109114;-64
2023/03/29 10:35:24;;;;;;;;;;;;;;;3.51;35.85;101521.91;107610;1254;108055;-64
2023/03/29 10:37:55;;;;;;;;;;;;;;;3.39;35.42;101521.92;107652;1256;97875;-63
2023/03/29 10:40:29;;;;;;;;;;;;;;;3.24;35.79;101518.35;107651;1254;97944;-63
2023/03/29 10:43:11;;;;;;;;;;;;;;;3.14;36.15;101516.49;107708;1255;111754;-64
2023/03/29 10:45:40;;;;;;;;;;;;;;;3.08;36.52;101515.38;107537;1254;109215;-63
2023/03/29 10:48:11;;;;;;;;;;;;;;;3.18;37.11;101518.13;107621;1254;108629;-65
2023/03/29 10:50:41;;;;;;;;;;;;;;;3.25;36.83;101511.23;107612;1254;97819;-63
2023/03/29 10:53:16;;;;;;;;;;;;;;;3.22;37.07;101514.02;107709;1254;97805;-63
2023/03/29 10:56:04;;;;;;;;;;;;;;;3.19;37.64;101510.77;107532;1253;110554;-64
2023/03/29 10:58:32;;;;;;;;;;;;;;;3.09;38.07;101510.36;107691;1254;109548;-63
2023/03/29 11:01:01;;;;;;;;;;;;;;;3.02;38.49;101514.06;107628;1254;107989;-62
2023/03/29 11:03:33;;;;;;;;;;;;;;;2.84;39.43;101520.67;107586;1254;97697;-63
2023/03/29 11:06:11;;;;;;;;;;;;;;;2.51;40.61;101530.06;107693;1254;97802;-64
2023/03/29 11:08:40;;;;;;;;;;;;;;;2.31;41.09;101531.80;107661;1253;111551;-62
2023/03/29 11:11:27;;;;;;;;;;;;;;;2.23;42.23;101534.43;107653;1254;109522;-63
2023/03/29 11:13:59;;;;;;;;;;;;;;;2.17;42.82;101520.33;107472;1259;108076;-63
2023/03/29 11:16:36;;;;;;;;;;;;;;;2.26;43.95;101513.60;107624;1254;97824;-63
2023/03/29 11:19:11;;;;;;;;;;;;;;;2.36;42.78;101515.48;107620;1253;97762;-64
2023/03/29 11:21:39;;;;;;;;;;;;;;;2.40;42.86;101513.52;107646;1254;111463;-63
2023/03/29 11:24:14;;;;;;;;;;;;;;;2.42;42.78;101510.45;107662;1256;109237;-63
2023/03/29 11:26:45;;;;;;;;;;;;;;;2.54;43.03;101508.86;107567;1254;108284;-64
2023/03/29 11:29:13;;;;;;;;;;;;;;;2.66;42.57;101499.88;107589;1254;97820;-63
2023/03/29 11:31:56;;;;;;;;;;;;;;;2.79;42.54;101495.19;107671;1254;97738;-63
2023/03/29 11:34:31;;;;;;;;;;;;;;;2.76;42.47;101501.35;107664;1256;111433;-64
2023/03/29 11:37:14;;;;;;;;;;;;;;;2.77;42.47;101501.14;107636;1254;109156;-64
2023/03/29 11:39:42;;;;;;;;;;;;;;;2.73;42.94;101506.09;107702;1252;108180;-64
2023/03/29 11:42:16;;;;;;;;;;;;;;;2.54;45.04;101520.70;107653;1253;98451;-62
2023/03/29 11:44:47;;;;;;;;;;;;;;;2.35;46.65;101525.27;107686;1253;97701;-63
2023/03/29 11:47:36;;;;;;;;;;;;;;;2.09;47.99;101527.91;107568;1253;110281;-64
2023/03/29 11:50:17;;;;;;;;;;;;;;;1.80;49.05;101522.70;107623;1253;109822;-64
2023/03/29 11:52:50;;;;;;;;;;;;;;;1.67;48.32;101513.14;107588;1254;108115;-64
2023/03/29 11:55:24;;;;;;;;;;;;;;;1.77;48.08;101511.16;107474;1254;97893;-64
2023/03/29 11:58:11;;;;;;;;;;;;;;;1.89;46.98;101498.80;107715;1254;97835;-63
2023/03/29 12:00:46;;;;;;;;;;;;;;;2.12;46.91;101500.89;107700;1254;111758;-65
2023/03/29 12:03:17;;;;;;;;;;;;;;;2.30;46.45;101495.92;107644;1254;110196;-63
2023/03/29 12:05:46;;;;;;;;;;;;;;;2.51;45.04;101486.13;107562;1254;108352;-63
2023/03/29 12:08:17;;;;;;;;;;;;;;;2.65;44.24;101492.09;107590;1252;97837;-63
2023/03/29 12:10:57;;;;;;;;;;;;;;;2.82;44.00;101487.64;107542;1254;97902;-64
2023/03/29 12:13:39;;;;;;;;;;;;;;;2.99;43.18;101493.25;107524;1254;112210;-65
2023/03/29 12:16:16;;;;;;;;;;;;;;;3.09;42.83;101495.13;107607;1254;109580;-64
2023/03/29 12:18:46;;;;;;;;;;;;;;;3.16;42.41;101499.95;107721;1256;109694;-63
2023/03/29 12:21:20;;;;;;;;;;;;;;;3.07;42.14;101501.61;107517;1254;97851;-64
2023/03/29 12:23:50;;;;;;;;;;;;;;;3.09;41.91;101503.25;107618;1254;97899;-62
2023/03/29 12:26:28;;;;;;;;;;;;;;;3.14;42.07;101505.52;107503;1251;111346;-64
2023/03/29 12:29:16;;;;;;;;;;;;;;;3.21;42.42;101505.91;107747;1253;109575;-63
2023/03/29 12:31:47;;;;;;;;;;;;;;;3.28;41.89;101505.59;107562;1251;108079;-64
2023/03/29 12:34:16;;;;;;;;;;;;;;;3.37;41.99;101502.16;107539;1254;97822;-64
2023/03/29 12:37:10;;;;;;;;;;;;;;;3.56;41.75;101503.45;107657;1253;97815;-64
2023/03/29 12:40:04;;;;;;;;;;;;;;;3.72;39.91;101500.35;107369;1251;111956;-65
2023/03/29 12:42:52;;;;;;;;;;;;;;;3.95;39.92;101498.52;107610;1254;108728;-65
2023/03/29 12:45:47;;;;;;;;;;;;;;;4.16;38.93;101493.40;107639;1256;107822;-64
2023/03/29 12:48:19;;;;;;;;;;;;;;;4.27;38.41;101495.20;107698;1254;97834;-64
2023/03/29 12:50:59;;;;;;;;;;;;;;;4.23;37.69;101489.88;107753;1253;97726;-63
2023/03/29 12:53:34;;;;;;;;;;;;;;;4.29;37.38;101482.12;107531;1255;111306;-65
2023/03/29 12:56:03;;;;;;;;;;;;;;;4.35;37.49;101486.09;107592;1254;108973;-63
2023/03/29 12:58:38;;;;;;;;;;;;;;;4.20;37.10;101481.48;107640;1253;108737;-64
2023/03/29 13:01:09;;;;;;;;;;;;;;;4.11;38.11;101489.57;107575;1253;97879;-63
2023/03/29 13:03:47;;;;;;;;;;;;;;;4.05;38.28;101498.05;107692;1254;97802;-64